createdAt,value
2023-03-27T00:01:30.818Z,1.60
2023-03-27T00:03:58.559Z,1.60
2023-03-27T00:06:27.205Z,2.43
2023-03-27T00:08:54.467Z,2.10
2023-03-27T00:11:24.857Z,2.53
2023-03-27T00:13:54.342Z,2.70
2023-03-27T00:16:26.517Z,2.70
2023-03-27T00:18:54.520Z,3.07
2023-03-27T00:21:22.512Z,3.67
2023-03-27T00:23:49.839Z,2.87
2023-03-27T00:26:17.108Z,3.80
2023-03-27T00:28:44.484Z,3.20
2023-03-27T00:31:13.578Z,2.70
2023-03-27T00:33:41.366Z,3.00
2023-03-27T00:36:09.451Z,3.80
2023-03-27T00:38:37.138Z,5.17
2023-03-27T00:41:04.978Z,3.40
2023-03-27T00:43:34.532Z,4.43
2023-03-27T00:46:21.731Z,4.33
2023-03-27T00:48:51.473Z,4.97
2023-03-27T00:51:19.790Z,4.20
2023-03-27T00:53:48.261Z,6.10
2023-03-27T00:56:19.552Z,5.60
2023-03-27T00:58:48.917Z,4.87
2023-03-27T01:01:16.796Z,8.97
2023-03-27T01:03:46.948Z,7.40
2023-03-27T01:06:17.177Z,5.97
2023-03-27T01:08:46.700Z,10.20
2023-03-27T01:11:20.673Z,7.70
2023-03-27T01:14:11.925Z,8.87
2023-03-27T01:16:46.285Z,8.80
2023-03-27T01:19:32.439Z,11.07
2023-03-27T01:22:05.936Z,6.97
2023-03-27T01:24:52.148Z,5.33
2023-03-27T01:27:37.750Z,5.57
2023-03-27T01:30:28.694Z,5.03
2023-03-27T01:33:16.063Z,6.13
2023-03-27T01:35:52.893Z,5.97
2023-03-27T01:38:29.499Z,7.07
2023-03-27T01:40:57.136Z,4.27
2023-03-27T01:43:24.631Z,6.37
2023-03-27T01:45:51.896Z,3.53
2023-03-27T01:48:24.543Z,6.10
2023-03-27T01:50:55.046Z,8.10
2023-03-27T01:53:29.186Z,5.40
2023-03-27T01:56:01.226Z,4.20
2023-03-27T01:58:33.906Z,6.57
2023-03-27T02:01:02.416Z,4.37
2023-03-27T02:03:38.690Z,5.43
2023-03-27T02:06:11.453Z,4.77
2023-03-27T02:09:03.252Z,7.97
2023-03-27T02:11:33.336Z,6.53
2023-03-27T02:14:11.790Z,5.37
2023-03-27T02:16:42.664Z,7.87
2023-03-27T02:19:14.511Z,7.23
2023-03-27T02:21:41.847Z,4.30
2023-03-27T02:24:09.630Z,8.53
2023-03-27T02:26:39.026Z,7.40
2023-03-27T02:29:09.020Z,6.93
2023-03-27T02:31:45.865Z,6.00
2023-03-27T02:34:25.999Z,6.93
2023-03-27T02:36:56.415Z,6.60
2023-03-27T02:39:40.063Z,7.70
2023-03-27T02:42:20.867Z,5.37
2023-03-27T02:44:59.461Z,8.10
2023-03-27T02:47:42.388Z,7.50
2023-03-27T02:50:13.187Z,6.03
2023-03-27T02:52:42.554Z,6.83
2023-03-27T02:55:14.191Z,4.77
2023-03-27T02:57:51.836Z,8.13
2023-03-27T03:00:28.339Z,7.63
2023-03-27T03:03:12.363Z,4.23
2023-03-27T03:05:41.249Z,10.43
2023-03-27T03:08:10.273Z,8.20
2023-03-27T03:10:43.168Z,8.23
2023-03-27T03:13:10.485Z,8.83
2023-03-27T03:15:39.076Z,8.67
2023-03-27T03:18:07.621Z,6.27
2023-03-27T03:20:35.496Z,5.63
2023-03-27T03:23:05.047Z,7.33
2023-03-27T03:25:32.248Z,9.23
2023-03-27T03:28:00.380Z,7.07
2023-03-27T03:30:29.075Z,8.53
2023-03-27T03:33:09.648Z,6.33
2023-03-27T03:35:37.149Z,7.03
2023-03-27T03:38:11.294Z,8.30
2023-03-27T03:40:46.268Z,5.27
2023-03-27T03:43:13.752Z,5.53
2023-03-27T03:45:41.397Z,9.77
2023-03-27T03:48:08.700Z,7.43
2023-03-27T03:50:36.155Z,5.87
2023-03-27T03:53:03.461Z,6.70
2023-03-27T03:55:30.655Z,6.53
2023-03-27T03:57:58.562Z,6.80
2023-03-27T04:00:26.986Z,6.87
2023-03-27T04:03:15.579Z,7.23
2023-03-27T04:05:43.298Z,8.30
2023-03-27T04:08:11.178Z,8.30
2023-03-27T04:11:16.834Z,5.90
2023-03-27T04:14:04.273Z,9.67
2023-03-27T04:16:37.943Z,6.30
2023-03-27T04:19:18.221Z,7.03
2023-03-27T04:21:48.421Z,8.13
2023-03-27T04:24:18.253Z,8.27
2023-03-27T04:26:48.053Z,5.70
2023-03-27T04:29:30.196Z,8.23
2023-03-27T04:32:00.381Z,8.27
2023-03-27T04:34:40.450Z,6.97
2023-03-27T04:37:16.882Z,10.40
2023-03-27T04:40:07.365Z,10.80
2023-03-27T04:42:34.672Z,8.23
2023-03-27T04:45:02.568Z,9.53
2023-03-27T04:47:30.234Z,29.53
2023-03-27T04:50:00.983Z,27.80
2023-03-27T04:52:29.597Z,15.80
2023-03-27T04:54:58.881Z,6.97
2023-03-27T04:57:28.752Z,8.63
2023-03-27T05:00:00.389Z,8.90
2023-03-27T05:02:57.599Z,5.43
2023-03-27T05:05:33.219Z,7.03
2023-03-27T05:08:00.891Z,7.93
2023-03-27T05:10:28.177Z,5.53
2023-03-27T05:12:57.191Z,5.97
2023-03-27T05:15:26.176Z,4.53
2023-03-27T05:17:55.160Z,6.33
2023-03-27T05:20:25.520Z,4.87
2023-03-27T05:22:56.572Z,5.37
2023-03-27T05:25:27.972Z,7.37
2023-03-27T05:27:56.370Z,4.90
2023-03-27T05:30:27.048Z,5.40
2023-03-27T05:33:16.399Z,5.03
2023-03-27T05:35:46.731Z,5.33
2023-03-27T05:38:14.229Z,5.33
2023-03-27T05:41:10.779Z,9.63
2023-03-27T05:43:42.871Z,3.67
2023-03-27T05:46:10.308Z,5.87
2023-03-27T05:48:38.609Z,3.93
2023-03-27T05:51:06.645Z,3.50
2023-03-27T05:53:36.264Z,4.00
2023-03-27T05:56:21.406Z,3.33
2023-03-27T05:58:58.563Z,4.47
2023-03-27T06:01:27.897Z,2.87
2023-03-27T06:03:57.308Z,3.10
2023-03-27T06:06:29.631Z,4.37
2023-03-27T06:08:59.413Z,4.27
2023-03-27T06:11:28.056Z,3.00
2023-03-27T06:13:55.796Z,4.67
2023-03-27T06:16:36.857Z,4.90
2023-03-27T06:19:04.443Z,4.93
2023-03-27T06:21:31.984Z,3.40
2023-03-27T06:24:01.628Z,4.00
2023-03-27T06:26:28.836Z,7.20
2023-03-27T06:28:58.825Z,3.57
2023-03-27T06:31:29.296Z,4.13
2023-03-27T06:34:15.068Z,7.87
2023-03-27T06:39:46.767Z,4.20
2023-03-27T06:42:14.211Z,3.60
2023-03-27T06:44:51.181Z,4.90
2023-03-27T06:47:44.401Z,3.93
2023-03-27T06:50:38.759Z,4.83
2023-03-27T06:53:19.621Z,3.70
2023-03-27T06:55:53.751Z,4.33
2023-03-27T06:58:22.255Z,3.90
2023-03-27T07:00:51.307Z,4.00
2023-03-27T07:03:19.537Z,3.97
2023-03-27T07:06:10.049Z,3.73
2023-03-27T07:08:45.497Z,3.83
2023-03-27T07:11:15.127Z,2.50
2023-03-27T07:13:53.460Z,3.03
2023-03-27T07:16:25.769Z,3.30
2023-03-27T07:18:53.162Z,3.23
2023-03-27T07:21:21.134Z,2.77
2023-03-27T07:23:48.501Z,2.77
2023-03-27T07:26:29.352Z,1.87
2023-03-27T07:29:01.029Z,2.90
2023-03-27T07:31:48.963Z,1.57
2023-03-27T07:34:16.974Z,1.70
2023-03-27T07:37:06.956Z,2.73
2023-03-27T07:39:35.397Z,1.27
2023-03-27T07:42:03.066Z,1.77
2023-03-27T07:44:41.305Z,1.80
2023-03-27T07:47:09.742Z,4.47
2023-03-27T07:49:40.197Z,2.27
2023-03-27T07:52:12.047Z,1.73
2023-03-27T07:54:48.804Z,1.70
2023-03-27T07:57:18.564Z,1.70
2023-03-27T07:59:52.613Z,2.20
2023-03-27T08:02:28.398Z,2.43
2023-03-27T08:04:56.098Z,3.23
2023-03-27T08:07:25.030Z,2.00
2023-03-27T08:09:57.408Z,2.00
2023-03-27T08:12:25.402Z,3.33
2023-03-27T08:17:43.507Z,1.90
2023-03-27T08:20:15.355Z,2.00
2023-03-27T08:22:47.673Z,3.17
2023-03-27T08:26:02.892Z,3.27
2023-03-27T08:28:37.421Z,2.73
2023-03-27T08:31:11.274Z,1.97
2023-03-27T08:33:39.340Z,2.53
2023-03-27T08:36:20.018Z,2.60
2023-03-27T08:38:47.492Z,2.07
2023-03-27T08:41:38.411Z,2.07
2023-03-27T08:44:15.287Z,1.67
2023-03-27T08:46:58.081Z,1.67
2023-03-27T08:49:31.298Z,1.80
2023-03-27T08:52:15.665Z,1.97
2023-03-27T08:54:46.590Z,2.00
2023-03-27T08:57:23.472Z,1.70
2023-03-27T09:00:02.306Z,1.40
2023-03-27T09:02:44.879Z,1.50
2023-03-27T09:05:40.820Z,1.77
2023-03-27T09:08:20.631Z,1.63
2023-03-27T09:10:50.509Z,3.37
2023-03-27T09:13:46.393Z,1.93
2023-03-27T09:16:18.966Z,2.37
2023-03-27T09:18:54.352Z,2.00
2023-03-27T09:21:32.253Z,2.10
2023-03-27T09:24:08.025Z,2.33
2023-03-27T09:27:17.756Z,1.60
2023-03-27T09:30:18.923Z,1.53
2023-03-27T09:32:55.231Z,2.90
2023-03-27T09:35:22.803Z,2.00
2023-03-27T09:37:56.660Z,2.47
2023-03-27T09:40:30.771Z,3.37
2023-03-27T09:43:24.594Z,3.73
2023-03-27T09:45:53.974Z,1.83
2023-03-27T09:48:28.152Z,2.27
2023-03-27T09:50:56.536Z,2.13
2023-03-27T09:53:57.613Z,1.93
2023-03-27T09:56:28.211Z,2.37
2023-03-27T09:58:55.596Z,1.40
2023-03-27T10:01:30.797Z,2.13
2023-03-27T10:04:13.995Z,2.07
2023-03-27T10:06:45.257Z,1.90
2023-03-27T10:09:41.670Z,2.77
2023-03-27T10:12:17.316Z,2.63
2023-03-27T10:17:38.365Z,2.70
2023-03-27T10:20:17.656Z,3.13
2023-03-27T10:22:54.959Z,2.80
2023-03-27T10:25:29.543Z,3.63
2023-03-27T10:28:20.101Z,1.87
2023-03-27T10:31:24.995Z,2.20
2023-03-27T10:33:57.175Z,3.03
2023-03-27T10:36:49.324Z,1.83
2023-03-27T10:39:21.309Z,1.90
2023-03-27T10:42:08.015Z,2.03
2023-03-27T10:44:40.605Z,3.00
2023-03-27T10:47:16.592Z,2.47
2023-03-27T10:50:01.709Z,2.60
2023-03-27T10:53:03.568Z,2.57
2023-03-27T10:55:41.520Z,2.40
2023-03-27T10:58:32.641Z,3.50
2023-03-27T11:01:12.656Z,2.27
2023-03-27T11:03:55.068Z,4.13
2023-03-27T11:06:28.496Z,2.67
2023-03-27T11:09:09.981Z,2.47
2023-03-27T11:11:48.098Z,1.87
2023-03-27T11:14:21.567Z,2.57
2023-03-27T11:17:04.179Z,3.03
2023-03-27T11:19:53.947Z,2.27
2023-03-27T11:22:47.181Z,4.03
2023-03-27T11:25:38.526Z,2.43
2023-03-27T11:28:19.299Z,2.43
2023-03-27T11:30:50.521Z,2.10
2023-03-27T11:33:27.189Z,2.63
2023-03-27T11:36:05.384Z,3.40
2023-03-27T11:39:11.260Z,2.27
2023-03-27T11:41:46.734Z,2.30
2023-03-27T11:44:14.325Z,1.93
2023-03-27T11:47:09.465Z,3.93
2023-03-27T11:49:59.340Z,1.77
2023-03-27T11:52:34.337Z,2.97
2023-03-27T11:55:09.478Z,2.53
2023-03-27T11:58:02.419Z,4.47
2023-03-27T12:00:45.149Z,3.40
2023-03-27T12:03:13.415Z,3.83
2023-03-27T12:06:02.270Z,2.13
2023-03-27T12:08:45.930Z,1.50
2023-03-27T12:11:13.368Z,3.43
2023-03-27T12:14:00.445Z,3.93
2023-03-27T12:16:41.746Z,2.70
2023-03-27T12:19:38.834Z,4.23
2023-03-27T12:22:38.760Z,1.70
2023-03-27T12:25:34.202Z,1.83
2023-03-27T12:28:48.284Z,3.27
2023-03-27T12:31:49.545Z,1.93
2023-03-27T12:34:19.976Z,2.90
2023-03-27T12:36:48.296Z,2.00
2023-03-27T12:39:21.104Z,5.97
2023-03-27T12:41:49.268Z,2.93
2023-03-27T12:44:32.473Z,3.23
2023-03-27T12:47:08.481Z,1.77
2023-03-27T12:49:46.404Z,2.20
2023-03-27T12:52:21.166Z,3.00
2023-03-27T12:55:11.405Z,5.30
2023-03-27T12:57:57.342Z,3.07
2023-03-27T13:00:53.126Z,2.10
2023-03-27T13:03:41.679Z,1.93
2023-03-27T13:06:14.360Z,3.40
2023-03-27T13:09:00.880Z,2.40
2023-03-27T13:11:32.084Z,1.80
2023-03-27T13:14:03.803Z,3.00
2023-03-27T13:16:51.701Z,2.33
2023-03-27T13:19:35.365Z,3.97
2023-03-27T13:22:34.711Z,3.50
2023-03-27T13:25:18.560Z,2.33
2023-03-27T13:27:48.842Z,2.13
2023-03-27T13:30:37.561Z,2.43
2023-03-27T13:33:25.188Z,3.63
2023-03-27T13:35:55.732Z,3.53
2023-03-27T13:38:42.105Z,2.90
2023-03-27T13:41:28.247Z,3.13
2023-03-27T13:43:56.558Z,3.37
2023-03-27T13:46:39.541Z,1.67
2023-03-27T13:49:32.325Z,3.50
2023-03-27T13:52:14.834Z,3.40
2023-03-27T13:54:42.441Z,2.13
2023-03-27T13:57:13.154Z,2.43
2023-03-27T13:59:59.124Z,2.33
2023-03-27T14:03:05.204Z,2.37
2023-03-27T14:05:49.944Z,2.93
2023-03-27T14:08:34.559Z,2.07
2023-03-27T14:11:55.725Z,3.63
2023-03-27T14:15:03.906Z,1.83
2023-03-27T14:17:37.325Z,3.30
2023-03-27T14:20:22.355Z,1.53
2023-03-27T14:22:58.775Z,2.43
2023-03-27T14:25:36.503Z,1.40
2023-03-27T14:28:31.953Z,2.10
2023-03-27T14:31:05.838Z,1.20
2023-03-27T14:33:58.779Z,1.73
2023-03-27T14:36:30.110Z,2.47
2023-03-27T14:39:08.323Z,1.37
2023-03-27T14:41:56.172Z,3.87
2023-03-27T14:44:25.074Z,3.53
2023-03-27T14:46:57.805Z,2.47
2023-03-27T14:49:29.480Z,2.10
2023-03-27T14:52:04.341Z,1.90
2023-03-27T14:54:55.602Z,2.27
2023-03-27T14:57:27.298Z,3.33
2023-03-27T14:59:57.990Z,2.57
2023-03-27T15:02:30.527Z,3.00
2023-03-27T15:05:04.999Z,2.33
2023-03-27T15:07:36.285Z,2.17
2023-03-27T15:10:20.565Z,3.67
2023-03-27T15:13:09.743Z,2.10
2023-03-27T15:15:42.800Z,3.00
2023-03-27T15:18:12.357Z,2.23
2023-03-27T15:20:43.435Z,2.50
2023-03-27T15:23:13.714Z,3.27
2023-03-27T15:25:44.677Z,2.57
2023-03-27T15:28:22.400Z,3.37
2023-03-27T15:30:51.704Z,1.70
2023-03-27T15:33:22.259Z,1.73
2023-03-27T15:35:52.105Z,3.10
2023-03-27T15:38:25.490Z,1.30
2023-03-27T15:41:00.867Z,2.00
2023-03-27T15:43:30.059Z,1.50
2023-03-27T15:46:00.933Z,2.30
2023-03-27T15:48:36.033Z,1.30
2023-03-27T15:51:05.107Z,1.30
2023-03-27T15:53:38.526Z,1.40
2023-03-27T15:56:17.146Z,2.87
2023-03-27T15:58:46.672Z,1.40
2023-03-27T16:01:24.321Z,1.97
2023-03-27T16:03:52.193Z,1.87
2023-03-27T16:06:24.499Z,1.60
2023-03-27T16:08:52.067Z,1.50
2023-03-27T16:11:39.633Z,1.93
2023-03-27T16:14:28.629Z,1.70
2023-03-27T16:17:11.211Z,1.50
2023-03-27T16:19:43.560Z,2.73
2023-03-27T16:22:30.476Z,1.77
2023-03-27T16:24:58.330Z,1.60
2023-03-27T16:27:39.359Z,1.70
2023-03-27T16:30:07.985Z,3.93
2023-03-27T16:32:36.094Z,2.00
2023-03-27T16:35:03.384Z,2.57
2023-03-27T16:37:31.168Z,2.10
2023-03-27T16:39:58.391Z,3.00
2023-03-27T16:42:26.670Z,2.57
2023-03-27T16:44:53.933Z,2.30
2023-03-27T16:47:23.482Z,4.37
2023-03-27T16:50:03.589Z,6.20
2023-03-27T16:52:37.868Z,2.83
2023-03-27T16:55:07.312Z,2.93
2023-03-27T16:57:35.202Z,2.27
2023-03-27T17:00:03.415Z,5.70
2023-03-27T17:02:34.145Z,4.27
2023-03-27T17:05:02.247Z,4.07
2023-03-27T17:07:29.556Z,3.60
2023-03-27T17:09:57.361Z,3.03
2023-03-27T17:12:24.665Z,2.27
2023-03-27T17:14:52.734Z,3.03
2023-03-27T17:17:20.157Z,3.90
2023-03-27T17:19:47.393Z,2.20
2023-03-27T17:22:14.624Z,2.87
2023-03-27T17:24:55.322Z,1.90
2023-03-27T17:27:24.104Z,2.27
2023-03-27T17:29:55.471Z,2.20
2023-03-27T17:32:22.959Z,2.93
2023-03-27T17:34:52.058Z,2.07
2023-03-27T17:37:20.805Z,1.60
2023-03-27T17:39:48.476Z,2.53
2023-03-27T17:42:15.846Z,3.53
2023-03-27T17:44:44.852Z,1.40
2023-03-27T17:47:12.236Z,2.43
2023-03-27T17:49:39.733Z,2.00
2023-03-27T17:52:11.798Z,1.40
2023-03-27T17:54:39.189Z,1.80
2023-03-27T17:57:06.660Z,2.90
2023-03-27T17:59:34.075Z,1.80
2023-03-27T18:02:01.684Z,2.30
2023-03-27T18:04:29.619Z,1.70
2023-03-27T18:06:57.093Z,2.20
2023-03-27T18:09:25.347Z,1.90
2023-03-27T18:11:52.874Z,2.23
2023-03-27T18:14:20.440Z,2.20
2023-03-27T18:16:47.739Z,2.73
2023-03-27T18:19:15.246Z,3.87
2023-03-27T18:21:42.840Z,3.27
2023-03-27T18:24:10.087Z,3.97
2023-03-27T18:26:37.658Z,3.10
2023-03-27T18:29:05.031Z,3.67
2023-03-27T18:31:32.403Z,4.90
2023-03-27T18:33:59.689Z,3.37
2023-03-27T18:36:27.271Z,3.80
2023-03-27T18:38:54.500Z,3.73
2023-03-27T18:41:21.701Z,3.30
2023-03-27T18:43:48.943Z,3.10
2023-03-27T18:46:17.026Z,3.17
2023-03-27T18:48:44.919Z,3.27
2023-03-27T18:51:12.229Z,2.83
2023-03-27T18:53:39.962Z,4.73
2023-03-27T18:56:08.129Z,4.07
2023-03-27T18:58:36.072Z,2.50
2023-03-27T19:01:08.929Z,2.73
2023-03-27T19:03:36.744Z,3.60
2023-03-27T19:06:05.595Z,2.90
2023-03-27T19:08:33.515Z,3.90
2023-03-27T19:11:01.202Z,2.53
2023-03-27T19:13:46.849Z,3.23
2023-03-27T19:16:43.237Z,2.23
2023-03-27T19:19:30.736Z,2.43
2023-03-27T19:22:16.420Z,3.30
2023-03-27T19:24:52.412Z,3.10
2023-03-27T19:27:24.097Z,2.27
2023-03-27T19:29:52.112Z,2.00
2023-03-27T19:32:19.274Z,2.70
2023-03-27T19:34:47.307Z,2.10
2023-03-27T19:37:14.490Z,2.10
2023-03-27T19:39:41.809Z,2.77
2023-03-27T19:42:09.024Z,2.40
2023-03-27T19:44:38.146Z,2.07
2023-03-27T19:47:06.118Z,2.30
2023-03-27T19:49:33.416Z,2.33
2023-03-27T19:52:21.001Z,2.30
2023-03-27T19:54:48.196Z,1.80
2023-03-27T19:57:15.873Z,2.40
2023-03-27T19:59:43.078Z,7.13
2023-03-27T20:02:12.685Z,9.07
2023-03-27T20:04:40.244Z,2.67
2023-03-27T20:07:07.664Z,2.27
2023-03-27T20:09:35.537Z,3.53
2023-03-27T20:12:03.206Z,3.20
2023-03-27T20:14:30.964Z,2.30
2023-03-27T20:16:58.212Z,2.20
2023-03-27T20:19:27.011Z,2.67
2023-03-27T20:21:55.408Z,2.20
2023-03-27T20:24:22.702Z,3.13
2023-03-27T20:26:57.127Z,4.47
2023-03-27T20:29:26.095Z,2.53
2023-03-27T20:31:53.444Z,4.50
2023-03-27T20:34:22.114Z,2.77
2023-03-27T20:36:53.254Z,2.27
2023-03-27T20:39:47.167Z,3.27
2023-03-27T20:42:15.615Z,3.37
2023-03-27T20:44:46.405Z,2.40
2023-03-27T20:47:39.734Z,2.73
2023-03-27T20:50:07.695Z,3.23
2023-03-27T20:52:35.166Z,2.10
2023-03-27T20:55:02.649Z,2.93
2023-03-27T20:57:31.401Z,2.87
2023-03-27T20:59:58.587Z,2.63
2023-03-27T21:02:25.989Z,2.73
2023-03-27T21:04:53.209Z,1.70
2023-03-27T21:07:21.203Z,1.80
2023-03-27T21:09:48.526Z,1.60
2023-03-27T21:12:34.339Z,2.70
2023-03-27T21:15:04.250Z,1.90
2023-03-27T21:17:31.536Z,1.77
2023-03-27T21:19:58.845Z,3.57
2023-03-27T21:22:27.051Z,1.60
2023-03-27T21:24:54.268Z,2.03
2023-03-27T21:27:21.565Z,1.77
2023-03-27T21:29:48.789Z,3.13
2023-03-27T21:32:15.944Z,2.87
2023-03-27T21:34:43.169Z,2.27
2023-03-27T21:37:10.526Z,3.00
2023-03-27T21:39:37.822Z,1.80
2023-03-27T21:42:05.010Z,3.03
2023-03-27T21:44:32.626Z,2.37
2023-03-27T21:47:00.386Z,3.43
2023-03-27T21:49:29.197Z,4.37
2023-03-27T21:51:56.570Z,4.17
2023-03-27T21:54:23.780Z,2.60
2023-03-27T21:56:51.023Z,2.83
2023-03-27T21:59:19.198Z,3.40
2023-03-27T22:01:46.586Z,3.07
2023-03-27T22:04:13.937Z,4.30
2023-03-27T22:06:41.156Z,3.70
2023-03-27T22:09:08.441Z,3.03
2023-03-27T22:11:36.277Z,4.50
2023-03-27T22:14:03.495Z,2.57
2023-03-27T22:16:31.048Z,3.77
2023-03-27T22:18:58.376Z,2.13
2023-03-27T22:21:27.653Z,2.50
2023-03-27T22:23:56.190Z,2.43
2023-03-27T22:26:27.782Z,2.10
2023-03-27T22:28:56.410Z,4.07
2023-03-27T22:31:23.988Z,2.77
2023-03-27T22:33:51.410Z,2.17
2023-03-27T22:36:19.174Z,3.37
2023-03-27T22:38:46.840Z,3.37
2023-03-27T22:41:14.547Z,2.43
2023-03-27T22:43:41.915Z,2.10
2023-03-27T22:46:10.900Z,2.40
2023-03-27T22:48:38.374Z,3.97
2023-03-27T22:51:05.688Z,2.97
2023-03-27T22:53:35.333Z,1.87
2023-03-27T22:56:03.290Z,3.00
2023-03-27T22:58:31.376Z,2.90
2023-03-27T23:03:43.991Z,1.30
2023-03-27T23:06:16.925Z,3.07
2023-03-27T23:08:44.975Z,2.60
2023-03-27T23:11:13.807Z,2.33
2023-03-27T23:13:41.223Z,1.50
2023-03-27T23:16:08.971Z,3.07
2023-03-27T23:18:36.402Z,2.50
2023-03-27T23:21:07.645Z,2.47
2023-03-27T23:23:35.803Z,2.83
2023-03-27T23:26:03.883Z,2.50
2023-03-27T23:28:32.902Z,2.43
2023-03-27T23:31:01.385Z,4.07
2023-03-27T23:33:30.559Z,3.20
2023-03-27T23:36:06.502Z,2.50
2023-03-27T23:38:34.093Z,2.73
2023-03-27T23:41:02.041Z,2.70
2023-03-27T23:43:29.747Z,4.23
2023-03-27T23:45:59.297Z,2.43
2023-03-27T23:48:27.428Z,5.67
2023-03-27T23:50:56.036Z,4.50
2023-03-27T23:53:25.694Z,3.33
2023-03-27T23:55:53.219Z,2.53
2023-03-27T23:58:20.771Z,3.43
